Idag blev flygning med Mats om är Head of Training på skolan.

Vi planerade för ILS:er och så la jag till att vi tar full procedure, för det var väldigt längesedan det gjordes (om jag gjort det överhuvudtaget, jag tror faktiskt inte det…)

METAR ESMS 181520Z 08011KT CAVOK 00/M08 Q1023

Härligt väder idag och flygningen gick också bra idag. Hann med 3 stycken full procedures på bana 17, innan vi satte hjulen på marken igen. Inte så mycket att skriva om detta passet, det var faktiskt ganska händelselöst. Finns fortfarande en del att slipa på, men det känns som att jag tagit ett bra kliv framåt.